createdAt,value
2023-05-14T00:04:58.795Z,94471.19
2023-05-14T00:10:01.036Z,94454.78
2023-05-14T00:15:03.633Z,94468.63
2023-05-14T00:20:07.662Z,94465.06
2023-05-14T00:25:10.096Z,94459.16
2023-05-14T00:30:12.531Z,94448.25
2023-05-14T00:35:14.543Z,94457.09
2023-05-14T00:40:16.853Z,94454.28
2023-05-14T00:45:19.115Z,94438.06
2023-05-14T00:50:21.639Z,94445.31
2023-05-14T00:55:23.904Z,94452.00
2023-05-14T01:00:26.253Z,94446.78
2023-05-14T01:05:35.774Z,94433.16
2023-05-14T01:10:52.659Z,94415.53
2023-05-14T01:15:57.724Z,94432.94
2023-05-14T01:20:59.665Z,94414.28
2023-05-14T01:26:01.767Z,94418.53
2023-05-14T01:31:09.810Z,94426.34
2023-05-14T01:36:11.899Z,94418.63
2023-05-14T01:41:14.995Z,94422.75
2023-05-14T01:46:20.873Z,94416.72
2023-05-14T01:51:22.968Z,94417.25
2023-05-14T01:56:26.020Z,94422.81
2023-05-14T02:01:28.338Z,94413.69
2023-05-14T02:06:30.348Z,94424.38
2023-05-14T02:11:35.429Z,94419.53
2023-05-14T02:16:37.505Z,94414.72
2023-05-14T02:21:39.717Z,94421.16
2023-05-14T02:26:42.363Z,94432.53
2023-05-14T02:31:44.408Z,94437.16
2023-05-14T02:36:46.483Z,94440.97
2023-05-14T02:41:48.455Z,94437.69
2023-05-14T02:46:50.501Z,94439.38
2023-05-14T02:51:54.434Z,94418.38
2023-05-14T02:56:56.468Z,94419.06
2023-05-14T03:01:58.635Z,94414.97
2023-05-14T03:07:01.213Z,94412.56
2023-05-14T03:12:03.456Z,94406.91
2023-05-14T03:17:05.555Z,94395.94
2023-05-14T03:22:07.462Z,94391.13
2023-05-14T03:27:09.457Z,94389.59
2023-05-14T03:32:11.547Z,94396.47
2023-05-14T03:37:13.496Z,94389.53
2023-05-14T03:42:15.506Z,94387.34
2023-05-14T03:47:17.483Z,94382.38
2023-05-14T03:52:19.376Z,94395.19
2023-05-14T03:57:21.449Z,94390.34
2023-05-14T04:02:23.648Z,94397.44
2023-05-14T04:07:25.519Z,94400.75
2023-05-14T04:12:28.673Z,94393.88
2023-05-14T04:17:31.614Z,94388.22
2023-05-14T04:22:33.745Z,94376.47
2023-05-14T04:27:35.782Z,94380.56
2023-05-14T04:32:38.279Z,94409.56
2023-05-14T04:37:40.708Z,94393.88
2023-05-14T04:42:42.993Z,94416.78
2023-05-14T04:47:45.237Z,94406.44
2023-05-14T04:52:47.222Z,94411.47
2023-05-14T04:57:49.363Z,94406.31
2023-05-14T05:02:51.362Z,94400.66
2023-05-14T05:07:53.416Z,94418.88
2023-05-14T05:12:55.409Z,94423.28
2023-05-14T05:17:57.313Z,94430.94
2023-05-14T05:22:59.646Z,94422.00
2023-05-14T05:28:01.721Z,94425.94
2023-05-14T05:33:03.786Z,94434.06
2023-05-14T05:38:05.785Z,94425.28
2023-05-14T05:43:07.853Z,94430.47
2023-05-14T05:48:09.818Z,94438.63
2023-05-14T05:53:12.574Z,94448.53
2023-05-14T05:58:16.063Z,94458.25
2023-05-14T06:03:18.004Z,94469.06
2023-05-14T06:08:19.944Z,94474.84
2023-05-14T06:13:22.168Z,94481.75
2023-05-14T06:18:24.109Z,94469.84
2023-05-14T06:23:26.515Z,94477.22
2023-05-14T06:28:28.768Z,94495.09
2023-05-14T06:33:31.526Z,94486.63
2023-05-14T06:38:33.909Z,94492.44
2023-05-14T06:43:35.807Z,94486.47
2023-05-14T06:48:37.884Z,94496.47
2023-05-14T06:53:42.750Z,94489.72
2023-05-14T06:58:44.713Z,94492.22
2023-05-14T07:03:46.870Z,94499.88
2023-05-14T07:08:48.864Z,94502.66
2023-05-14T07:13:50.786Z,94505.91
2023-05-14T07:18:52.885Z,94500.81
2023-05-14T07:23:54.968Z,94492.22
2023-05-14T07:28:56.829Z,94490.31
2023-05-14T07:33:58.876Z,94496.78
2023-05-14T07:39:01.101Z,94499.47
2023-05-14T07:44:03.223Z,94503.19
2023-05-14T07:49:05.103Z,94489.78
2023-05-14T07:54:07.018Z,94490.66
2023-05-14T07:59:08.990Z,94489.84
2023-05-14T08:04:16.222Z,94490.00
2023-05-14T08:09:18.331Z,94491.72
2023-05-14T08:14:21.646Z,94485.63
2023-05-14T08:19:24.525Z,94475.28
2023-05-14T08:24:26.855Z,94494.84
2023-05-14T08:29:28.946Z,94495.72
2023-05-14T08:34:33.953Z,94488.66
2023-05-14T08:39:36.001Z,94482.94
2023-05-14T08:44:44.241Z,94472.94
2023-05-14T08:49:55.594Z,94461.19
2023-05-14T08:54:59.656Z,94476.06
2023-05-14T09:00:08.441Z,94449.38
2023-05-14T09:05:10.786Z,94466.19
2023-05-14T09:10:13.276Z,94450.72
2023-05-14T09:15:15.726Z,94447.34
2023-05-14T09:20:17.957Z,94450.44
2023-05-14T09:25:19.890Z,94438.34
2023-05-14T09:30:22.335Z,94457.38
2023-05-14T09:35:25.016Z,94449.41
2023-05-14T09:40:27.688Z,94442.84
2023-05-14T09:45:30.105Z,94445.25
2023-05-14T09:50:32.318Z,94450.72
2023-05-14T09:55:34.248Z,94451.97
2023-05-14T10:00:36.605Z,94441.34
2023-05-14T10:05:41.279Z,94428.34
2023-05-14T10:10:43.594Z,94429.09
2023-05-14T10:15:50.944Z,94425.44
2023-05-14T10:21:06.386Z,94425.50
2023-05-14T10:26:11.891Z,94427.16
2023-05-14T10:31:14.061Z,94422.03
2023-05-14T10:36:17.768Z,94434.91
2023-05-14T10:41:21.672Z,94427.78
2023-05-14T10:46:23.684Z,94427.84
2023-05-14T10:51:25.864Z,94433.59
2023-05-14T10:56:27.823Z,94433.34
2023-05-14T11:01:30.134Z,94433.94
2023-05-14T11:06:33.225Z,94430.69
2023-05-14T11:11:36.084Z,94416.72
2023-05-14T11:16:38.225Z,94430.66
2023-05-14T11:21:40.136Z,94431.69
2023-05-14T11:26:42.253Z,94417.72
2023-05-14T11:31:44.757Z,94422.38
2023-05-14T11:36:46.735Z,94424.88
2023-05-14T11:41:48.936Z,94427.00
2023-05-14T11:46:57.940Z,94428.00
2023-05-14T11:52:01.408Z,94414.75
2023-05-14T11:57:14.427Z,94416.19
2023-05-14T12:02:18.775Z,94421.09
2023-05-14T12:07:20.854Z,94415.50
2023-05-14T12:12:23.149Z,94417.56
2023-05-14T12:17:25.184Z,94399.50
2023-05-14T12:22:27.803Z,94408.41
2023-05-14T12:27:30.797Z,94408.84
2023-05-14T12:32:36.399Z,94409.50
2023-05-14T12:37:42.116Z,94405.44
2023-05-14T12:42:44.157Z,94392.88
2023-05-14T12:47:46.320Z,94393.13
2023-05-14T12:52:48.423Z,94398.72
2023-05-14T12:57:50.523Z,94403.03
2023-05-14T13:02:52.451Z,94397.88
2023-05-14T13:07:54.411Z,94398.53
2023-05-14T13:12:57.208Z,94388.94
2023-05-14T13:17:59.537Z,94366.84
2023-05-14T13:23:01.531Z,94375.97
2023-05-14T13:28:03.461Z,94370.19
2023-05-14T13:33:05.882Z,94357.78
2023-05-14T13:38:07.946Z,94367.06
2023-05-14T13:43:10.148Z,94361.34
2023-05-14T13:48:12.150Z,94355.44
2023-05-14T13:53:14.077Z,94338.69
2023-05-14T13:58:16.359Z,94344.69
2023-05-14T14:03:18.661Z,94357.13
2023-05-14T14:08:23.452Z,94335.53
2023-05-14T14:13:26.512Z,94326.03
2023-05-14T14:18:28.477Z,94322.22
2023-05-14T14:23:30.889Z,94327.63
2023-05-14T14:28:32.750Z,94328.19
2023-05-14T14:33:34.872Z,94314.31
2023-05-14T14:38:36.865Z,94313.19
2023-05-14T14:43:41.263Z,94311.59
2023-05-14T14:48:44.227Z,94291.75
2023-05-14T14:53:46.189Z,94307.19
2023-05-14T14:58:48.257Z,94292.53
2023-05-14T15:03:50.119Z,94287.91
2023-05-14T15:08:52.163Z,94289.50
2023-05-14T15:13:54.237Z,94293.00
2023-05-14T15:18:56.140Z,94292.72
2023-05-14T15:23:58.198Z,94283.06
2023-05-14T15:29:00.139Z,94289.66
2023-05-14T15:34:02.207Z,94286.06
2023-05-14T15:39:04.314Z,94290.31
2023-05-14T15:44:06.390Z,94280.56
2023-05-14T15:49:08.583Z,94308.34
2023-05-14T15:54:10.688Z,94320.94
2023-05-14T15:59:14.655Z,94329.22
2023-05-14T16:04:16.417Z,94339.84
2023-05-14T16:09:18.237Z,94337.34
2023-05-14T16:14:20.487Z,94332.00
2023-05-14T16:19:22.537Z,94326.84
2023-05-14T16:24:24.527Z,94315.50
2023-05-14T16:29:26.421Z,94328.22
2023-05-14T16:34:28.444Z,94320.97
2023-05-14T16:39:30.540Z,94315.78
2023-05-14T16:44:32.896Z,94326.19
2023-05-14T16:49:34.964Z,94303.69
2023-05-14T16:54:37.220Z,94314.94
2023-05-14T16:59:39.118Z,94299.81
2023-05-14T17:04:42.386Z,94320.63
2023-05-14T17:09:44.328Z,94325.63
2023-05-14T17:14:46.374Z,94326.19
2023-05-14T17:19:48.414Z,94316.13
2023-05-14T17:24:50.593Z,94317.53
2023-05-14T17:29:52.581Z,94309.66
2023-05-14T17:34:54.620Z,94321.38
2023-05-14T17:39:56.730Z,94320.97
2023-05-14T17:44:58.946Z,94327.94
2023-05-14T17:50:00.925Z,94328.66
2023-05-14T17:55:03.023Z,94327.78
2023-05-14T18:00:05.734Z,94327.69
2023-05-14T18:05:13.340Z,94327.94
2023-05-14T18:10:15.364Z,94330.25
2023-05-14T18:15:17.507Z,94320.78
2023-05-14T18:20:19.856Z,94345.06
2023-05-14T18:25:21.859Z,94346.09
2023-05-14T18:30:23.878Z,94349.03
2023-05-14T18:35:26.183Z,94349.59
2023-05-14T18:40:28.456Z,94355.63
2023-05-14T18:45:30.702Z,94363.16
2023-05-14T18:50:32.810Z,94363.53
2023-05-14T18:55:37.661Z,94361.03
2023-05-14T19:00:39.633Z,94384.94
2023-05-14T19:05:41.640Z,94379.38
2023-05-14T19:10:43.790Z,94400.78
2023-05-14T19:15:46.218Z,94392.13
2023-05-14T19:20:48.435Z,94406.09
2023-05-14T19:25:50.430Z,94412.91
2023-05-14T19:30:53.447Z,94412.44
2023-05-14T19:35:56.150Z,94417.75
2023-05-14T19:40:58.118Z,94413.66
2023-05-14T19:46:01.650Z,94426.28
2023-05-14T19:51:04.025Z,94411.69
2023-05-14T19:56:06.701Z,94424.69
2023-05-14T20:01:08.862Z,94413.16
2023-05-14T20:06:11.604Z,94428.75
2023-05-14T20:11:15.619Z,94435.25
2023-05-14T20:16:18.102Z,94436.25
2023-05-14T20:21:20.192Z,94441.09
2023-05-14T20:26:22.398Z,94453.44
2023-05-14T20:31:24.494Z,94456.56
2023-05-14T20:36:26.746Z,94473.59
2023-05-14T20:41:28.700Z,94476.88
2023-05-14T20:46:31.258Z,94481.41
2023-05-14T20:51:33.475Z,94479.47
2023-05-14T20:56:36.787Z,94479.09
2023-05-14T21:01:38.960Z,94486.03
2023-05-14T21:06:41.144Z,94485.34
2023-05-14T21:11:43.410Z,94490.91
2023-05-14T21:16:45.869Z,94483.34
2023-05-14T21:21:48.133Z,94508.16
2023-05-14T21:26:52.234Z,94506.84
2023-05-14T21:31:55.531Z,94503.28
2023-05-14T21:36:57.527Z,94504.75
2023-05-14T21:41:59.392Z,94498.16
2023-05-14T21:47:01.400Z,94488.66
2023-05-14T21:52:03.864Z,94492.81
2023-05-14T21:57:06.625Z,94501.44
2023-05-14T22:02:09.012Z,94498.88
2023-05-14T22:07:11.469Z,94501.59
2023-05-14T22:12:13.425Z,94489.13
2023-05-14T22:17:15.563Z,94503.69
2023-05-14T22:22:17.699Z,94508.63
2023-05-14T22:27:19.651Z,94510.88
2023-05-14T22:32:21.700Z,94503.25
2023-05-14T22:37:23.936Z,94507.16
2023-05-14T22:42:26.716Z,94500.78
2023-05-14T22:47:28.822Z,94495.09
2023-05-14T22:52:31.082Z,94492.63
2023-05-14T22:57:34.134Z,94481.84
2023-05-14T23:02:36.418Z,94488.06
2023-05-14T23:07:41.166Z,94490.78
2023-05-14T23:12:46.352Z,94495.06
2023-05-14T23:17:48.793Z,94498.84
2023-05-14T23:22:52.502Z,94494.41
2023-05-14T23:27:54.472Z,94495.81
2023-05-14T23:32:56.747Z,94502.97
2023-05-14T23:37:58.934Z,94494.59
2023-05-14T23:43:01.304Z,94506.19
2023-05-14T23:48:03.793Z,94488.78
2023-05-14T23:53:06.086Z,94490.81
2023-05-14T23:58:08.303Z,94489.91
